Time;durP1;ratioP1;P1;durP2;ratioP2;P2;SDS_P1;SDS_P2;PMS_P1;PMS_P2;Temp;Humidity;BMP_temperature;BMP_pressure;BME280_temperature;BME280_humidity;BME280_pressure;Samples;Min_cycle;Max_cycle;Signal;HPM_P1;HPM_P2
2022/05/23 00:00:17;;;;;;;4.43;3.10;;;;;;;;;;763696;180;918693;-64
2022/05/23 00:02:41;;;;;;;5.20;3.47;;;;;;;;;;768255;179;919004;-64
2022/05/23 00:05:07;;;;;;;5.53;3.87;;;;;;;;;;770177;180;917493;-64
2022/05/23 00:07:33;;;;;;;7.47;3.53;;;;;;;;;;772919;177;919378;-64
2022/05/23 00:09:59;;;;;;;5.30;3.10;;;;;;;;;;772274;180;918194;-64
2022/05/23 00:12:25;;;;;;;3.93;3.10;;;;;;;;;;766649;180;918576;-63
2022/05/23 00:14:51;;;;;;;4.57;3.50;;;;;;;;;;763690;182;919258;-64
2022/05/23 00:17:16;;;;;;;4.93;3.33;;;;;;;;;;765033;178;918758;-64
2022/05/23 00:19:42;;;;;;;5.30;3.93;;;;;;;;;;762157;181;1021497;-64
2022/05/23 00:22:08;;;;;;;5.57;4.03;;;;;;;;;;776723;178;918331;-63
2022/05/23 00:24:34;;;;;;;6.83;4.10;;;;;;;;;;769957;180;919141;-64
2022/05/23 00:27:00;;;;;;;6.70;4.47;;;;;;;;;;769313;180;932359;-65
2022/05/23 00:29:26;;;;;;;5.23;3.70;;;;;;;;;;774614;179;1020847;-63
2022/05/23 00:36:55;;;;;;;7.40;3.97;;;;;;;;;;772163;177;919869;-64
2022/05/23 00:39:21;;;;;;;5.17;4.13;;;;;;;;;;775164;179;915013;-63
2022/05/23 00:44:18;;;;;;;6.50;5.10;;;;;;;;;;762535;182;969838;-65
2022/05/23 00:46:48;;;;;;;5.50;4.77;;;;;;;;;;764727;180;913810;-65
2022/05/23 00:49:14;;;;;;;5.87;4.37;;;;;;;;;;768218;180;916697;-64
2022/05/23 00:51:39;;;;;;;5.43;4.37;;;;;;;;;;767439;181;916185;-65
2022/05/23 00:54:05;;;;;;;5.30;4.30;;;;;;;;;;769002;179;914908;-65
2022/05/23 00:56:31;;;;;;;5.80;4.37;;;;;;;;;;772932;180;918675;-65
2022/05/23 00:58:57;;;;;;;5.70;4.27;;;;;;;;;;762381;178;918978;-65
2022/05/23 01:01:23;;;;;;;7.83;4.63;;;;;;;;;;764345;178;919255;-64
2022/05/23 01:03:49;;;;;;;9.03;4.50;;;;;;;;;;764278;178;918699;-65
2022/05/23 01:06:14;;;;;;;6.97;5.10;;;;;;;;;;774246;182;918668;-64
2022/05/23 01:08:40;;;;;;;9.23;4.50;;;;;;;;;;766165;181;918864;-65
2022/05/23 01:11:06;;;;;;;6.57;4.80;;;;;;;;;;767044;179;919631;-65
2022/05/23 01:13:32;;;;;;;6.77;5.60;;;;;;;;;;777918;180;915820;-64
2022/05/23 01:15:58;;;;;;;6.40;5.10;;;;;;;;;;772201;178;918616;-65
2022/05/23 01:18:24;;;;;;;5.22;4.70;;;;;;;;;;769296;179;915579;-65
2022/05/23 01:20:50;;;;;;;6.10;4.30;;;;;;;;;;770568;181;909479;-65
2022/05/23 01:23:30;;;;;;;6.30;5.47;;;;;;;;;;764130;181;915184;-65
2022/05/23 01:25:56;;;;;;;8.47;4.97;;;;;;;;;;764003;181;919355;-65
2022/05/23 01:28:22;;;;;;;6.07;5.10;;;;;;;;;;765991;181;919274;-65
2022/05/23 01:30:48;;;;;;;6.13;4.57;;;;;;;;;;769878;180;919161;-66
2022/05/23 01:33:13;;;;;;;7.23;5.10;;;;;;;;;;771209;177;1021672;-66
2022/05/23 01:35:39;;;;;;;9.60;5.10;;;;;;;;;;771284;181;919129;-65
2022/05/23 01:38:05;;;;;;;6.40;5.00;;;;;;;;;;763855;181;917956;-65
2022/05/23 01:40:31;;;;;;;4.90;4.10;;;;;;;;;;772931;178;919228;-67
2022/05/23 01:42:57;;;;;;;8.43;4.77;;;;;;;;;;769077;179;918584;-65
2022/05/23 01:45:23;;;;;;;11.23;4.50;;;;;;;;;;769274;179;925935;-65
2022/05/23 01:47:49;;;;;;;5.50;4.33;;;;;;;;;;777938;179;940963;-65
2022/05/23 01:50:14;;;;;;;6.70;4.57;;;;;;;;;;762981;181;919128;-65
2022/05/23 01:52:40;;;;;;;5.33;4.40;;;;;;;;;;772499;179;918868;-65
2022/05/23 01:55:06;;;;;;;9.90;4.83;;;;;;;;;;774340;181;921045;-65
2022/05/23 01:57:32;;;;;;;12.00;4.93;;;;;;;;;;759178;183;919028;-64
2022/05/23 02:02:30;;;;;;;8.60;6.10;;;;;;;;;;765815;181;918556;-65
2022/05/23 02:04:55;;;;;;;8.30;5.50;;;;;;;;;;768675;181;920000;-65
2022/05/23 02:07:21;;;;;;;6.47;5.47;;;;;;;;;;766409;181;918217;-65
2022/05/23 02:09:47;;;;;;;10.23;6.23;;;;;;;;;;769937;180;919241;-66
2022/05/23 02:12:13;;;;;;;7.90;5.20;;;;;;;;;;776330;177;918631;-66
2022/05/23 02:14:39;;;;;;;6.40;4.23;;;;;;;;;;763371;181;918495;-64
2022/05/23 02:17:05;;;;;;;8.37;5.97;;;;;;;;;;767519;181;919890;-65
2022/05/23 02:19:31;;;;;;;7.72;5.55;;;;;;;;;;764691;181;918765;-64
2022/05/23 02:21:57;;;;;;;9.07;6.17;;;;;;;;;;774509;180;919071;-65
2022/05/23 02:24:23;;;;;;;10.37;7.37;;;;;;;;;;766010;181;918602;-66
2022/05/23 02:26:48;;;;;;;7.47;5.95;;;;;;;;;;762590;180;1021454;-66
2022/05/23 02:29:15;;;;;;;10.47;6.97;;;;;;;;;;777426;180;918948;-66
2022/05/23 02:31:40;;;;;;;8.05;6.30;;;;;;;;;;766772;180;919140;-66
2022/05/23 02:34:06;;;;;;;9.07;7.30;;;;;;;;;;776304;177;919030;-65
2022/05/23 02:36:32;;;;;;;8.57;6.57;;;;;;;;;;777800;179;918722;-65
2022/05/23 02:38:58;;;;;;;9.02;6.15;;;;;;;;;;766854;181;919915;-66
2022/05/23 02:41:23;;;;;;;11.30;7.30;;;;;;;;;;765439;181;919036;-66
2022/05/23 02:43:49;;;;;;;10.23;7.40;;;;;;;;;;780833;180;918681;-66
2022/05/23 02:46:15;;;;;;;11.83;6.80;;;;;;;;;;768128;180;919142;-66
2022/05/23 02:48:41;;;;;;;12.17;7.17;;;;;;;;;;765389;180;919668;-64
2022/05/23 02:51:07;;;;;;;11.47;6.90;;;;;;;;;;778342;179;918700;-65
2022/05/23 02:53:33;;;;;;;8.37;5.97;;;;;;;;;;777743;179;920497;-65
2022/05/23 02:55:59;;;;;;;10.17;6.90;;;;;;;;;;771177;179;916381;-65
2022/05/23 02:58:24;;;;;;;11.23;7.15;;;;;;;;;;766917;180;916442;-66
2022/05/23 03:00:50;;;;;;;7.23;5.87;;;;;;;;;;774744;181;916322;-64
2022/05/23 03:03:16;;;;;;;10.77;7.40;;;;;;;;;;768961;177;1494156;-65
2022/05/23 03:05:42;;;;;;;10.40;7.43;;;;;;;;;;766368;177;908218;-67
2022/05/23 03:08:08;;;;;;;10.40;8.30;;;;;;;;;;768178;178;918742;-65
2022/05/23 03:10:34;;;;;;;9.57;7.17;;;;;;;;;;765852;178;918712;-64
2022/05/23 03:12:59;;;;;;;9.57;7.17;;;;;;;;;;763712;177;918529;-65
2022/05/23 03:15:27;;;;;;;9.67;6.70;;;;;;;;;;770801;180;918323;-65
2022/05/23 03:17:51;;;;;;;10.60;7.57;;;;;;;;;;767077;180;918528;-65
2022/05/23 03:20:17;;;;;;;8.80;7.20;;;;;;;;;;765903;180;919106;-65
2022/05/23 03:27:46;;;;;;;8.37;6.90;;;;;;;;;;773653;177;922853;-65
2022/05/23 03:30:12;;;;;;;9.27;6.20;;;;;;;;;;769215;179;918139;-64
2022/05/23 03:32:39;;;;;;;8.35;6.70;;;;;;;;;;766971;180;918418;-65
2022/05/23 03:35:04;;;;;;;8.80;7.00;;;;;;;;;;770599;180;921624;-65
2022/05/23 03:37:30;;;;;;;9.80;7.47;;;;;;;;;;766320;180;1021447;-65
2022/05/23 03:39:56;;;;;;;11.87;8.77;;;;;;;;;;768787;177;918921;-65
2022/05/23 03:42:22;;;;;;;11.00;7.20;;;;;;;;;;771418;179;917210;-65
2022/05/23 03:44:47;;;;;;;8.63;7.37;;;;;;;;;;767286;179;920255;-65
2022/05/23 03:47:13;;;;;;;11.00;7.30;;;;;;;;;;770255;180;918649;-66
2022/05/23 03:49:40;;;;;;;16.60;6.90;;;;;;;;;;766752;184;918652;-64
2022/05/23 03:52:05;;;;;;;13.00;8.13;;;;;;;;;;775210;182;918256;-66
2022/05/23 03:54:31;;;;;;;11.03;7.50;;;;;;;;;;767136;179;919691;-66
2022/05/23 03:56:57;;;;;;;13.10;9.43;;;;;;;;;;768325;178;919637;-65
2022/05/23 03:59:23;;;;;;;28.33;20.80;;;;;;;;;;775341;181;918834;-66
2022/05/23 04:01:49;;;;;;;23.47;19.30;;;;;;;;;;764929;178;1021221;-65
2022/05/23 04:04:15;;;;;;;18.13;13.90;;;;;;;;;;767241;178;919357;-65
2022/05/23 04:06:41;;;;;;;24.17;16.40;;;;;;;;;;770975;180;919612;-65
2022/05/23 04:09:06;;;;;;;21.48;13.82;;;;;;;;;;765311;180;920094;-64
2022/05/23 04:11:32;;;;;;;21.23;16.23;;;;;;;;;;765384;181;918960;-65
2022/05/23 04:13:58;;;;;;;26.93;20.07;;;;;;;;;;769816;180;919076;-65
2022/05/23 04:16:27;;;;;;;23.08;14.82;;;;;;;;;;771068;180;931231;-65
2022/05/23 04:18:50;;;;;;;16.40;13.77;;;;;;;;;;765527;180;918650;-65
2022/05/23 04:21:16;;;;;;;19.20;12.27;;;;;;;;;;765443;180;919631;-65
2022/05/23 04:23:41;;;;;;;12.87;11.37;;;;;;;;;;772928;182;919396;-65
2022/05/23 04:26:08;;;;;;;16.10;11.00;;;;;;;;;;768628;180;919078;-64
2022/05/23 04:28:33;;;;;;;19.20;10.50;;;;;;;;;;767824;179;919283;-65
2022/05/23 04:30:59;;;;;;;13.50;11.97;;;;;;;;;;775610;180;919470;-64
2022/05/23 04:35:57;;;;;;;15.97;14.00;;;;;;;;;;761736;181;1018869;-65
2022/05/23 04:38:22;;;;;;;12.30;9.25;;;;;;;;;;768031;181;919559;-64
2022/05/23 04:40:48;;;;;;;16.13;9.20;;;;;;;;;;773761;180;618958;-67
2022/05/23 04:43:14;;;;;;;11.83;10.10;;;;;;;;;;775225;181;643540;-66
2022/05/23 04:45:40;;;;;;;13.23;9.97;;;;;;;;;;776598;179;636263;-66
2022/05/23 04:50:37;;;;;;;16.57;13.27;;;;;;;;;;771571;177;919026;-67
2022/05/23 04:53:03;;;;;;;19.63;13.97;;;;;;;;;;778085;176;636501;-67
2022/05/23 04:55:30;;;;;;;12.57;9.40;;;;;;;;;;776227;180;619494;-65
2022/05/23 04:57:59;;;;;;;15.53;9.80;;;;;;;;;;781391;179;659029;-66
2022/05/23 05:00:25;;;;;;;16.90;10.50;;;;;;;;;;772165;181;632919;-66
2022/05/23 05:02:51;;;;;;;12.37;9.73;;;;;;;;;;766948;179;919368;-65
2022/05/23 05:05:18;;;;;;;10.53;8.60;;;;;;;;;;775844;177;915607;-65
2022/05/23 05:07:45;;;;;;;14.20;10.32;;;;;;;;;;772085;177;916387;-67
2022/05/23 05:10:11;;;;;;;11.13;8.77;;;;;;;;;;763394;178;919214;-66
2022/05/23 05:12:37;;;;;;;10.67;7.83;;;;;;;;;;769307;180;922266;-66
2022/05/23 05:15:03;;;;;;;12.20;8.43;;;;;;;;;;773739;181;918962;-68
2022/05/23 05:17:29;;;;;;;11.50;7.37;;;;;;;;;;767702;180;919564;-66
2022/05/23 05:19:55;;;;;;;11.13;8.17;;;;;;;;;;772894;180;920119;-66
2022/05/23 05:22:21;;;;;;;10.70;8.17;;;;;;;;;;776966;180;918351;-66
2022/05/23 05:24:46;;;;;;;13.10;7.87;;;;;;;;;;762208;181;1025501;-66
2022/05/23 05:27:12;;;;;;;10.70;7.27;;;;;;;;;;764380;179;919664;-66
2022/05/23 05:29:38;;;;;;;12.93;7.30;;;;;;;;;;769031;181;919065;-67
2022/05/23 05:32:07;;;;;;;10.50;7.20;;;;;;;;;;770999;181;919026;-66
2022/05/23 05:34:42;;;;;;;8.23;7.30;;;;;;;;;;767651;180;919254;-66
2022/05/23 05:37:09;;;;;;;8.40;7.13;;;;;;;;;;771949;177;918113;-67
2022/05/23 05:39:34;;;;;;;8.87;6.90;;;;;;;;;;769954;181;919315;-67
2022/05/23 05:42:05;;;;;;;9.40;6.73;;;;;;;;;;762956;179;918865;-67
2022/05/23 05:44:31;;;;;;;12.70;8.30;;;;;;;;;;768762;179;927076;-66
2022/05/23 05:46:57;;;;;;;9.40;5.73;;;;;;;;;;771702;180;919372;-67
2022/05/23 05:49:23;;;;;;;14.43;6.67;;;;;;;;;;771611;181;919099;-67
2022/05/23 05:51:50;;;;;;;8.45;5.68;;;;;;;;;;763340;181;919346;-67
2022/05/23 05:54:17;;;;;;;12.90;5.43;;;;;;;;;;763878;178;925234;-67
2022/05/23 05:56:45;;;;;;;8.60;5.60;;;;;;;;;;770103;181;919621;-67
2022/05/23 05:59:11;;;;;;;12.03;6.30;;;;;;;;;;769220;180;920803;-67
2022/05/23 06:01:38;;;;;;;10.07;6.00;;;;;;;;;;768940;179;926017;-68
2022/05/23 06:04:04;;;;;;;10.37;5.70;;;;;;;;;;770260;179;916777;-67
2022/05/23 06:11:33;;;;;;;11.07;6.40;;;;;;;;;;764301;181;918665;-68
2022/05/23 06:13:59;;;;;;;14.80;6.62;;;;;;;;;;768053;181;918834;-68
2022/05/23 06:16:26;;;;;;;12.47;7.30;;;;;;;;;;771199;181;918496;-68
2022/05/23 06:18:52;;;;;;;10.67;6.70;;;;;;;;;;770125;178;919401;-68
2022/05/23 06:21:18;;;;;;;13.93;7.07;;;;;;;;;;776125;180;919505;-68
2022/05/23 06:23:47;;;;;;;8.90;6.80;;;;;;;;;;763265;180;918808;-67
2022/05/23 06:26:14;;;;;;;13.23;7.43;;;;;;;;;;745860;186;919042;-68
2022/05/23 06:28:39;;;;;;;8.50;6.50;;;;;;;;;;762204;181;918314;-68
2022/05/23 06:31:05;;;;;;;9.07;7.07;;;;;;;;;;767237;181;919140;-69
2022/05/23 06:33:31;;;;;;;12.60;7.20;;;;;;;;;;774218;181;916593;-70
2022/05/23 06:35:57;;;;;;;12.03;8.47;;;;;;;;;;769785;179;915156;-69
2022/05/23 06:38:24;;;;;;;17.10;8.40;;;;;;;;;;768352;177;932489;-68
2022/05/23 06:40:50;;;;;;;14.90;8.90;;;;;;;;;;771025;180;915546;-69
2022/05/23 06:43:15;;;;;;;13.73;9.40;;;;;;;;;;767717;180;914140;-70
2022/05/23 06:45:41;;;;;;;12.00;7.93;;;;;;;;;;769502;181;924615;-69
2022/05/23 06:48:08;;;;;;;8.27;6.87;;;;;;;;;;776307;177;919263;-70
2022/05/23 06:50:35;;;;;;;17.70;9.03;;;;;;;;;;766062;177;919393;-70
2022/05/23 06:53:02;;;;;;;13.13;8.00;;;;;;;;;;765453;178;919701;-69
2022/05/23 06:55:28;;;;;;;16.70;7.70;;;;;;;;;;765262;180;919235;-70
2022/05/23 06:57:55;;;;;;;10.43;9.20;;;;;;;;;;768787;181;918082;-71
2022/05/23 07:00:21;;;;;;;10.73;7.43;;;;;;;;;;769094;180;919286;-71
2022/05/23 07:02:47;;;;;;;11.33;8.67;;;;;;;;;;767868;177;920165;-71
2022/05/23 07:12:47;;;;;;;13.23;9.18;;;;;;;;;;769492;177;918755;-74
2022/05/23 07:15:14;;;;;;;10.75;8.13;;;;;;;;;;774790;180;919164;-70
2022/05/23 07:17:40;;;;;;;15.83;8.63;;;;;;;;;;778403;179;917539;-70
2022/05/23 07:20:06;;;;;;;10.30;7.27;;;;;;;;;;768544;180;920027;-72
2022/05/23 07:22:32;;;;;;;12.80;7.93;;;;;;;;;;768874;180;918675;-72
2022/05/23 07:24:58;;;;;;;10.80;7.73;;;;;;;;;;770268;178;920284;-73
2022/05/23 07:27:24;;;;;;;13.43;6.87;;;;;;;;;;767009;177;920683;-74
2022/05/23 07:29:50;;;;;;;11.63;6.87;;;;;;;;;;762647;181;1016718;-72
2022/05/23 07:32:16;;;;;;;11.93;7.63;;;;;;;;;;771959;179;917811;-71
2022/05/23 07:34:42;;;;;;;13.57;8.30;;;;;;;;;;764648;178;919162;-72
2022/05/23 07:37:09;;;;;;;12.73;7.20;;;;;;;;;;764816;177;919063;-74
2022/05/23 07:39:34;;;;;;;10.30;6.70;;;;;;;;;;771804;181;919614;-74
2022/05/23 07:42:01;;;;;;;14.63;6.50;;;;;;;;;;756243;181;917902;-76
2022/05/23 07:44:28;;;;;;;11.90;7.50;;;;;;;;;;773073;177;918907;-74
2022/05/23 07:46:55;;;;;;;11.07;7.25;;;;;;;;;;763767;178;948500;-73
2022/05/23 07:49:21;;;;;;;10.10;6.10;;;;;;;;;;770740;180;918475;-72
2022/05/23 07:51:47;;;;;;;8.70;5.40;;;;;;;;;;768348;181;946493;-72
2022/05/23 08:01:49;;;;;;;9.30;6.20;;;;;;;;;;766873;180;918200;-75
2022/05/23 08:04:14;;;;;;;13.43;4.60;;;;;;;;;;768614;180;918106;-72
2022/05/23 08:06:40;;;;;;;9.87;5.17;;;;;;;;;;768095;180;919317;-76
2022/05/23 08:09:07;;;;;;;15.90;5.50;;;;;;;;;;770149;179;890310;-74
2022/05/23 08:11:32;;;;;;;6.20;4.80;;;;;;;;;;769402;181;919245;-75
2022/05/23 08:13:58;;;;;;;6.77;4.70;;;;;;;;;;770716;177;918561;-72
2022/05/23 08:16:24;;;;;;;9.30;4.27;;;;;;;;;;769960;181;918990;-73
2022/05/23 08:18:50;;;;;;;7.67;4.80;;;;;;;;;;764709;181;918739;-73
2022/05/23 08:21:16;;;;;;;7.55;4.25;;;;;;;;;;770786;181;918570;-73
2022/05/23 08:23:42;;;;;;;9.63;4.97;;;;;;;;;;773514;179;917103;-73
2022/05/23 08:26:08;;;;;;;8.77;5.13;;;;;;;;;;775291;179;817298;-76
2022/05/23 08:28:33;;;;;;;9.40;4.43;;;;;;;;;;777612;176;616253;-73
2022/05/23 08:30:59;;;;;;;8.60;4.50;;;;;;;;;;770663;181;869771;-74
2022/05/23 08:33:26;;;;;;;8.13;5.13;;;;;;;;;;764066;182;815693;-78
2022/05/23 08:35:51;;;;;;;7.30;4.93;;;;;;;;;;771918;178;816925;-76
2022/05/23 08:38:17;;;;;;;8.30;4.70;;;;;;;;;;773432;179;917206;-75
2022/05/23 08:40:46;;;;;;;9.93;5.00;;;;;;;;;;770939;181;919452;-74
2022/05/23 08:43:13;;;;;;;12.57;4.33;;;;;;;;;;765205;177;927481;-79
2022/05/23 08:45:40;;;;;;;6.20;4.87;;;;;;;;;;764445;178;919352;-75
2022/05/23 08:48:17;;;;;;;7.80;5.13;;;;;;;;;;763851;178;914607;-72
2022/05/23 08:50:45;;;;;;;8.40;5.77;;;;;;;;;;761724;182;916216;-75
2022/05/23 08:53:12;;;;;;;9.80;4.90;;;;;;;;;;752595;183;915833;-75
2022/05/23 08:55:39;;;;;;;7.27;4.77;;;;;;;;;;761833;177;914432;-73
2022/05/23 08:58:05;;;;;;;6.00;4.53;;;;;;;;;;771723;177;817518;-81
2022/05/23 09:00:31;;;;;;;8.07;4.60;;;;;;;;;;772177;180;750944;-81
2022/05/23 09:02:57;;;;;;;5.13;3.90;;;;;;;;;;763807;178;1013204;-78
2022/05/23 09:05:25;;;;;;;7.13;3.10;;;;;;;;;;765060;181;918482;-74
2022/05/23 09:07:51;;;;;;;7.50;3.40;;;;;;;;;;768470;181;880728;-75
2022/05/23 09:10:23;;;;;;;6.70;3.73;;;;;;;;;;764331;178;816963;-76
2022/05/23 09:12:50;;;;;;;8.47;3.47;;;;;;;;;;763184;178;919711;-80
2022/05/23 09:15:17;;;;;;;6.10;3.97;;;;;;;;;;764567;181;917341;-81
2022/05/23 09:17:43;;;;;;;6.80;3.80;;;;;;;;;;768802;178;919578;-74
2022/05/23 09:20:11;;;;;;;7.30;4.53;;;;;;;;;;766185;178;919090;-76
2022/05/23 09:22:43;;;;;;;6.80;4.30;;;;;;;;;;765469;179;946785;-77
2022/05/23 09:25:05;;;;;;;8.37;4.40;;;;;;;;;;766606;177;918284;-75
2022/05/23 09:27:36;;;;;;;7.97;4.37;;;;;;;;;;775537;179;916825;-76
2022/05/23 09:30:02;;;;;;;6.30;4.30;;;;;;;;;;771890;180;915773;-75
2022/05/23 09:32:28;;;;;;;7.57;4.47;;;;;;;;;;763296;181;923853;-74
2022/05/23 09:34:55;;;;;;;5.33;3.77;;;;;;;;;;767607;180;917696;-75
2022/05/23 09:37:23;;;;;;;6.70;4.90;;;;;;;;;;761712;182;918487;-75
2022/05/23 09:39:50;;;;;;;6.70;4.20;;;;;;;;;;757751;179;919270;-76
2022/05/23 09:49:52;;;;;;;10.17;3.80;;;;;;;;;;764719;177;919221;-79
2022/05/23 09:52:19;;;;;;;6.57;4.03;;;;;;;;;;765548;181;919832;-79
2022/05/23 09:54:46;;;;;;;8.70;4.20;;;;;;;;;;771558;178;821048;-79
2022/05/23 09:57:13;;;;;;;7.73;3.70;;;;;;;;;;766090;179;918573;-78
2022/05/23 09:59:39;;;;;;;4.37;2.67;;;;;;;;;;769101;178;917600;-73
2022/05/23 10:02:05;;;;;;;7.33;3.30;;;;;;;;;;772852;177;919059;-75
2022/05/23 10:04:31;;;;;;;6.93;3.27;;;;;;;;;;777364;180;793560;-77
2022/05/23 10:06:57;;;;;;;10.57;3.30;;;;;;;;;;767695;178;921823;-80
2022/05/23 10:09:23;;;;;;;5.20;3.43;;;;;;;;;;769834;179;917413;-75
2022/05/23 10:11:53;;;;;;;9.03;3.83;;;;;;;;;;772016;177;803310;-76
2022/05/23 10:14:19;;;;;;;5.83;3.40;;;;;;;;;;766175;180;856767;-75
2022/05/23 10:16:45;;;;;;;5.30;3.97;;;;;;;;;;770575;177;917884;-81
2022/05/23 10:19:11;;;;;;;5.10;3.10;;;;;;;;;;770679;179;917386;-79
2022/05/23 10:21:37;;;;;;;6.93;3.37;;;;;;;;;;775313;178;917583;-75
2022/05/23 10:24:03;;;;;;;8.27;3.12;;;;;;;;;;769703;180;918807;-81
2022/05/23 10:26:29;;;;;;;6.70;3.20;;;;;;;;;;774759;179;817326;-78
2022/05/23 10:29:10;;;;;;;5.80;2.90;;;;;;;;;;777218;180;918642;-76
2022/05/23 10:31:38;;;;;;;4.37;2.87;;;;;;;;;;769846;178;803208;-79
2022/05/23 10:34:10;;;;;;;5.70;2.40;;;;;;;;;;764740;182;816696;-77
2022/05/23 10:36:37;;;;;;;4.97;2.50;;;;;;;;;;771467;181;918325;-81
2022/05/23 10:44:20;;;;;;;4.70;2.67;;;;;;;;;;775881;177;815582;-80
2022/05/23 10:46:46;;;;;;;4.10;2.90;;;;;;;;;;765479;178;859870;-74
2022/05/23 10:49:13;;;;;;;3.57;1.53;;;;;;;;;;764401;177;939416;-78
2022/05/23 10:51:39;;;;;;;5.27;1.77;;;;;;;;;;764848;177;915677;-77
2022/05/23 10:54:10;;;;;;;5.60;2.37;;;;;;;;;;771867;177;759520;-76
2022/05/23 10:56:43;;;;;;;3.80;1.97;;;;;;;;;;768818;178;922025;-78
2022/05/23 10:59:09;;;;;;;7.27;1.77;;;;;;;;;;763158;181;897246;-77
2022/05/23 11:01:53;;;;;;;3.23;1.80;;;;;;;;;;771097;177;915665;-77
2022/05/23 11:04:25;;;;;;;7.70;2.53;;;;;;;;;;770287;177;919575;-76
2022/05/23 11:06:57;;;;;;;5.10;2.10;;;;;;;;;;771562;181;913947;-76
2022/05/23 11:09:29;;;;;;;3.77;2.00;;;;;;;;;;774196;181;917954;-75
2022/05/23 11:12:00;;;;;;;5.80;2.10;;;;;;;;;;765718;181;918137;-78
2022/05/23 11:14:29;;;;;;;4.13;2.20;;;;;;;;;;769174;180;918958;-77
2022/05/23 11:16:56;;;;;;;3.17;1.80;;;;;;;;;;770236;178;919135;-73
2022/05/23 11:19:25;;;;;;;3.50;1.57;;;;;;;;;;775866;179;918515;-79
2022/05/23 11:21:52;;;;;;;3.50;1.90;;;;;;;;;;767878;180;918536;-76
2022/05/23 11:24:19;;;;;;;3.63;1.80;;;;;;;;;;775513;181;815845;-76
2022/05/23 11:26:46;;;;;;;4.55;1.70;;;;;;;;;;773893;180;919419;-76
2022/05/23 11:34:23;;;;;;;4.60;2.23;;;;;;;;;;766431;180;927214;-77
2022/05/23 11:39:27;;;;;;;2.43;1.60;;;;;;;;;;769264;179;918267;-77
2022/05/23 11:41:53;;;;;;;3.60;1.80;;;;;;;;;;771872;179;713555;-70
2022/05/23 11:44:25;;;;;;;3.87;1.73;;;;;;;;;;765085;179;918578;-77
2022/05/23 11:46:57;;;;;;;7.93;2.12;;;;;;;;;;771327;177;915475;-78
2022/05/23 11:49:28;;;;;;;8.77;2.27;;;;;;;;;;770083;181;918793;-75
2022/05/23 11:51:56;;;;;;;5.57;2.33;;;;;;;;;;773723;180;921143;-76
2022/05/23 11:54:28;;;;;;;5.97;2.37;;;;;;;;;;768067;178;787907;-77
2022/05/23 11:57:15;;;;;;;2.87;1.40;;;;;;;;;;769187;177;918327;-76
2022/05/23 11:59:56;;;;;;;3.60;2.17;;;;;;;;;;766351;178;918708;-76
2022/05/23 12:02:21;;;;;;;4.20;1.70;;;;;;;;;;772211;177;815693;-76
2022/05/23 12:05:04;;;;;;;3.13;2.10;;;;;;;;;;769619;177;916770;-76
2022/05/23 12:07:44;;;;;;;2.83;1.60;;;;;;;;;;768074;177;918175;-76
2022/05/23 12:10:16;;;;;;;5.07;1.80;;;;;;;;;;767391;177;919425;-76
2022/05/23 12:12:43;;;;;;;3.10;1.80;;;;;;;;;;772249;178;915866;-79
2022/05/23 12:15:09;;;;;;;2.90;1.70;;;;;;;;;;772040;180;919529;-76
2022/05/23 12:17:34;;;;;;;5.57;3.13;;;;;;;;;;767999;177;916902;-75
2022/05/23 12:20:01;;;;;;;4.10;1.90;;;;;;;;;;765061;181;913584;-78
2022/05/23 12:22:27;;;;;;;2.40;1.20;;;;;;;;;;774834;179;913146;-75
2022/05/23 12:25:04;;;;;;;2.90;1.50;;;;;;;;;;765797;179;1019557;-76
2022/05/23 12:27:30;;;;;;;2.97;1.53;;;;;;;;;;765365;179;918716;-77
2022/05/23 12:30:03;;;;;;;2.67;1.50;;;;;;;;;;767418;177;918076;-73
2022/05/23 12:32:29;;;;;;;2.25;1.30;;;;;;;;;;770237;180;1024918;-73
2022/05/23 12:34:58;;;;;;;2.60;1.47;;;;;;;;;;767137;178;919565;-77
2022/05/23 12:37:26;;;;;;;3.50;1.60;;;;;;;;;;766154;180;930151;-76
2022/05/23 12:39:56;;;;;;;3.47;1.90;;;;;;;;;;766002;178;918878;-75
2022/05/23 12:42:42;;;;;;;3.03;1.57;;;;;;;;;;774137;181;815049;-76
2022/05/23 12:45:15;;;;;;;3.10;1.60;;;;;;;;;;772209;181;918793;-76
2022/05/23 12:47:54;;;;;;;5.20;1.60;;;;;;;;;;773849;180;918896;-74
2022/05/23 12:50:26;;;;;;;2.70;1.43;;;;;;;;;;765383;180;882231;-75
2022/05/23 12:53:09;;;;;;;3.17;1.23;;;;;;;;;;771088;177;637638;-75
2022/05/23 12:55:37;;;;;;;3.10;1.33;;;;;;;;;;764331;182;624626;-78
2022/05/23 12:58:09;;;;;;;3.40;1.70;;;;;;;;;;770092;180;634714;-77
2022/05/23 13:00:35;;;;;;;2.77;1.43;;;;;;;;;;772796;178;646073;-78
2022/05/23 13:03:02;;;;;;;3.20;1.63;;;;;;;;;;772412;180;633508;-78
2022/05/23 13:05:27;;;;;;;2.77;1.63;;;;;;;;;;770242;178;631674;-76
2022/05/23 13:07:58;;;;;;;4.43;1.30;;;;;;;;;;768373;180;627945;-76
2022/05/23 13:10:25;;;;;;;3.00;1.70;;;;;;;;;;775539;180;651943;-77
2022/05/23 13:12:57;;;;;;;3.60;1.50;;;;;;;;;;774074;179;628725;-75
2022/05/23 13:15:23;;;;;;;2.87;1.50;;;;;;;;;;771428;181;631151;-76
2022/05/23 13:17:49;;;;;;;2.20;1.20;;;;;;;;;;774181;179;815078;-76
2022/05/23 13:22:47;;;;;;;2.60;1.30;;;;;;;;;;780502;178;638185;-78
2022/05/23 13:25:13;;;;;;;3.60;1.80;;;;;;;;;;776281;178;897756;-77
2022/05/23 13:27:43;;;;;;;2.50;1.53;;;;;;;;;;771827;178;713391;-73
2022/05/23 13:30:09;;;;;;;3.33;1.70;;;;;;;;;;774079;181;647351;-79
2022/05/23 13:32:36;;;;;;;4.43;1.60;;;;;;;;;;774477;178;623251;-78
2022/05/23 13:35:04;;;;;;;3.13;1.40;;;;;;;;;;777604;181;627780;-75
2022/05/23 13:37:30;;;;;;;3.43;1.60;;;;;;;;;;764915;181;629568;-77
2022/05/23 13:39:57;;;;;;;5.03;1.50;;;;;;;;;;770465;182;631555;-79
2022/05/23 13:42:24;;;;;;;3.20;1.73;;;;;;;;;;771444;179;646361;-77
2022/05/23 13:44:50;;;;;;;3.80;1.70;;;;;;;;;;775088;178;627449;-75
2022/05/23 13:47:26;;;;;;;3.20;1.60;;;;;;;;;;772760;179;666039;-74
2022/05/23 13:49:52;;;;;;;4.60;1.60;;;;;;;;;;777662;177;625871;-77
2022/05/23 13:52:17;;;;;;;3.63;1.10;;;;;;;;;;773709;180;613314;-79
2022/05/23 13:54:47;;;;;;;3.30;1.30;;;;;;;;;;768956;180;712884;-78
2022/05/23 13:57:11;;;;;;;2.57;1.50;;;;;;;;;;775625;178;632895;-76
2022/05/23 13:59:38;;;;;;;5.30;1.73;;;;;;;;;;773007;180;705820;-75
2022/05/23 14:02:03;;;;;;;2.87;1.47;;;;;;;;;;768036;178;816638;-75
2022/05/23 14:04:29;;;;;;;6.07;1.73;;;;;;;;;;771565;180;623634;-77
2022/05/23 14:06:55;;;;;;;2.40;1.30;;;;;;;;;;772054;180;620585;-76
2022/05/23 14:09:21;;;;;;;3.90;1.70;;;;;;;;;;767853;179;920417;-78
2022/05/23 14:11:49;;;;;;;3.07;1.90;;;;;;;;;;768340;180;759628;-76
2022/05/23 14:14:16;;;;;;;3.63;1.80;;;;;;;;;;765032;181;625249;-80
2022/05/23 14:16:58;;;;;;;2.70;1.37;;;;;;;;;;761056;180;1066488;-77
2022/05/23 14:19:24;;;;;;;5.87;1.73;;;;;;;;;;771944;179;630171;-78
2022/05/23 14:21:50;;;;;;;11.63;2.50;;;;;;;;;;770574;180;810414;-75
2022/05/23 14:24:16;;;;;;;4.10;1.77;;;;;;;;;;773927;179;759166;-76
2022/05/23 14:26:41;;;;;;;2.60;1.50;;;;;;;;;;770432;180;803290;-75
2022/05/23 14:29:10;;;;;;;2.53;1.30;;;;;;;;;;768208;179;819763;-77
2022/05/23 14:31:37;;;;;;;4.03;1.67;;;;;;;;;;777268;178;683814;-75
2022/05/23 14:34:03;;;;;;;2.70;1.60;;;;;;;;;;762368;181;919803;-77
2022/05/23 14:36:30;;;;;;;2.83;1.40;;;;;;;;;;766356;179;896328;-76
2022/05/23 14:38:55;;;;;;;2.77;1.73;;;;;;;;;;770751;179;815381;-78
2022/05/23 14:41:21;;;;;;;2.40;1.30;;;;;;;;;;775370;179;918063;-80
2022/05/23 14:43:47;;;;;;;3.30;1.50;;;;;;;;;;771027;179;713949;-76
2022/05/23 14:46:16;;;;;;;2.77;1.60;;;;;;;;;;765644;177;1043284;-76
2022/05/23 14:48:41;;;;;;;3.50;1.50;;;;;;;;;;767230;178;856415;-74
2022/05/23 14:51:09;;;;;;;5.50;1.70;;;;;;;;;;769722;180;918790;-76
2022/05/23 14:56:11;;;;;;;2.40;1.27;;;;;;;;;;771882;178;649098;-75
2022/05/23 15:01:17;;;;;;;4.17;1.90;;;;;;;;;;770997;180;706853;-74
2022/05/23 15:03:44;;;;;;;2.80;1.47;;;;;;;;;;763923;180;717005;-74
2022/05/23 15:06:09;;;;;;;6.60;1.60;;;;;;;;;;769623;179;635129;-75
2022/05/23 15:08:35;;;;;;;3.17;1.53;;;;;;;;;;771176;179;615752;-76
2022/05/23 15:11:01;;;;;;;3.83;1.70;;;;;;;;;;773827;178;916306;-75
2022/05/23 15:13:28;;;;;;;3.73;1.47;;;;;;;;;;769821;180;632125;-73
2022/05/23 15:15:52;;;;;;;3.30;1.97;;;;;;;;;;769484;178;630267;-74
2022/05/23 15:18:18;;;;;;;3.00;1.73;;;;;;;;;;770680;180;627510;-75
2022/05/23 15:20:44;;;;;;;5.50;1.43;;;;;;;;;;770317;178;632628;-76
2022/05/23 15:23:10;;;;;;;4.27;1.50;;;;;;;;;;769811;179;819259;-76
2022/05/23 15:25:36;;;;;;;3.10;1.60;;;;;;;;;;773166;180;625849;-77
2022/05/23 15:28:02;;;;;;;3.57;1.93;;;;;;;;;;768877;179;624842;-72
2022/05/23 15:30:30;;;;;;;2.37;1.50;;;;;;;;;;768126;180;649802;-73